Accueil
METAR-TAF:

METAR-TAF

Aéroports :

Aéroport de Dortmund

Dortmund, Allemagne

latitude: 51-31N, longitude: 007-37E, altitude: 127 m

Observation

Le bulletin a été fait il y a 15 minutes, à 13:20 UTC
Vent 5 kt de direction variable
Température 25°C
Humidité 34%
Pression 1025 hPa
Visibilité 10 km ou plus
pas de nuages en-dessous de 1500 mètres et pas de cumulonimbus.

METAR: EDLW 221320Z VRB05KT CAVOK 25/08 Q1025

Heure: 15:35 (13:35 UTC)

Prévision

Le bulletin a été fait il y a 2 heures et 35 minutes, à 11:00 UTC
Prévision valable du 22 à 12 UTC au 23 à 12 UTC
Vent 10 kt de sud-ouest
Visibilité 10 km ou plus
pas de nuages en-dessous de 1500 mètres et pas de cumulonimbus.
Evoluant progressivement
du 22 à 16 UTC au 22 à 18 UTC
Vent 3 kt de direction variable
Evoluant progressivement
du 23 à 06 UTC au 23 à 09 UTC
Vent 5 kt de nord-est

TAF: EDLW 221100Z 2212/2312 22010KT CAVOK BECMG 2216/2218 VRB03KT BECMG 2306/2309 04005KT

Observations et prévisions météorologiques de plus de 4000 aéroports (messages METAR et TAF).

Les stations disponibles sont représentées par des disques jaunes et rouges sur la carte.

Passer la souris dessus pour voir le nom de la station.

Cliquer dessus pour voir les observations et prévisions météorologiques.

Pour changer de carte: cliquez sur les boutons verts avec une croix noire pour zoomer, sur le bouton vert avec un tiret pour effectuer un zoom arrière, ou sur les flèches vertes pour les cartes adjacentes.


METAR-TAF: